sensor_id;sensor_type;location;lat;lon;timestamp;P1;durP1;ratioP1;P2;durP2;ratioP2
68072;SDS011;54862;51.502;7.446;2023-07-13T16:41:17;9.07;;;4.22;;
68072;SDS011;54862;51.502;7.446;2023-07-13T16:43:43;10.68;;;4.85;;
68072;SDS011;54862;51.502;7.446;2023-07-13T16:46:11;9.07;;;4.45;;
68072;SDS011;54862;51.502;7.446;2023-07-13T16:48:40;7.25;;;4.47;;
68072;SDS011;54862;51.502;7.446;2023-07-13T16:51:06;10.20;;;4.97;;
68072;SDS011;54862;51.502;7.446;2023-07-13T16:53:32;8.70;;;5.07;;
68072;SDS011;54862;51.502;7.446;2023-07-13T16:55:59;8.82;;;4.80;;
68072;SDS011;54862;51.502;7.446;2023-07-13T16:58:27;8.48;;;4.72;;
68072;SDS011;54862;51.502;7.446;2023-07-13T17:00:55;12.32;;;5.57;;
68072;SDS011;54862;51.502;7.446;2023-07-13T17:03:22;9.57;;;5.32;;
68072;SDS011;54862;51.502;7.446;2023-07-13T17:05:48;9.40;;;5.55;;
68072;SDS011;54862;51.502;7.446;2023-07-13T17:08:25;10.00;;;5.85;;
68072;SDS011;54862;51.502;7.446;2023-07-13T17:10:54;10.48;;;5.70;;
68072;SDS011;54862;51.502;7.446;2023-07-13T17:13:22;10.70;;;5.30;;
68072;SDS011;54862;51.502;7.446;2023-07-13T17:15:49;11.95;;;5.55;;
68072;SDS011;54862;51.502;7.446;2023-07-13T17:18:22;9.32;;;5.72;;
68072;SDS011;54862;51.502;7.446;2023-07-13T17:20:49;11.75;;;5.68;;
68072;SDS011;54862;51.502;7.446;2023-07-13T17:23:18;9.98;;;5.72;;
68072;SDS011;54862;51.502;7.446;2023-07-13T17:25:47;12.90;;;6.43;;
68072;SDS011;54862;51.502;7.446;2023-07-13T17:30:48;9.93;;;6.00;;
68072;SDS011;54862;51.502;7.446;2023-07-13T17:33:20;11.80;;;6.43;;
68072;SDS011;54862;51.502;7.446;2023-07-13T17:35:48;11.73;;;6.55;;
68072;SDS011;54862;51.502;7.446;2023-07-13T17:38:14;11.45;;;7.30;;
68072;SDS011;54862;51.502;7.446;2023-07-13T17:40:40;13.50;;;6.65;;
68072;SDS011;54862;51.502;7.446;2023-07-13T17:43:06;14.18;;;7.35;;
68072;SDS011;54862;51.502;7.446;2023-07-13T17:45:32;13.25;;;7.20;;
68072;SDS011;54862;51.502;7.446;2023-07-13T17:48:01;11.85;;;6.85;;
68072;SDS011;54862;51.502;7.446;2023-07-13T17:50:34;11.18;;;7.22;;
68072;SDS011;54862;51.502;7.446;2023-07-13T17:53:13;12.00;;;7.30;;
68072;SDS011;54862;51.502;7.446;2023-07-13T17:55:40;13.98;;;7.90;;
68072;SDS011;54862;51.502;7.446;2023-07-13T17:58:07;14.50;;;8.20;;
68072;SDS011;54862;51.502;7.446;2023-07-13T18:00:33;11.63;;;6.75;;
68072;SDS011;54862;51.502;7.446;2023-07-13T18:03:14;13.15;;;7.57;;
68072;SDS011;54862;51.502;7.446;2023-07-13T18:05:41;14.45;;;8.07;;
68072;SDS011;54862;51.502;7.446;2023-07-13T18:08:22;14.00;;;6.97;;
68072;SDS011;54862;51.502;7.446;2023-07-13T18:10:48;14.40;;;7.25;;
68072;SDS011;54862;51.502;7.446;2023-07-13T18:13:15;12.38;;;7.32;;
68072;SDS011;54862;51.502;7.446;2023-07-13T18:15:42;14.80;;;8.05;;
68072;SDS011;54862;51.502;7.446;2023-07-13T18:18:09;14.90;;;9.00;;
68072;SDS011;54862;51.502;7.446;2023-07-13T18:20:37;13.05;;;7.97;;
68072;SDS011;54862;51.502;7.446;2023-07-13T18:23:08;15.48;;;7.75;;
68072;SDS011;54862;51.502;7.446;2023-07-13T18:25:42;13.07;;;6.80;;
68072;SDS011;54862;51.502;7.446;2023-07-13T18:28:10;11.95;;;7.22;;
68072;SDS011;54862;51.502;7.446;2023-07-13T18:30:38;12.23;;;6.90;;
68072;SDS011;54862;51.502;7.446;2023-07-13T18:33:05;13.40;;;7.90;;
68072;SDS011;54862;51.502;7.446;2023-07-13T18:35:35;14.13;;;7.65;;
68072;SDS011;54862;51.502;7.446;2023-07-13T18:38:07;12.15;;;6.55;;
68072;SDS011;54862;51.502;7.446;2023-07-13T18:40:34;13.13;;;6.45;;
68072;SDS011;54862;51.502;7.446;2023-07-13T18:43:00;12.70;;;6.28;;
68072;SDS011;54862;51.502;7.446;2023-07-13T18:45:26;12.95;;;5.95;;
68072;SDS011;54862;51.502;7.446;2023-07-13T18:47:55;10.50;;;5.85;;
68072;SDS011;54862;51.502;7.446;2023-07-13T18:50:28;10.85;;;5.60;;
68072;SDS011;54862;51.502;7.446;2023-07-13T18:52:56;12.85;;;5.50;;
68072;SDS011;54862;51.502;7.446;2023-07-13T18:55:23;10.93;;;5.28;;
68072;SDS011;54862;51.502;7.446;2023-07-13T18:57:54;12.02;;;5.40;;
68072;SDS011;54862;51.502;7.446;2023-07-13T19:00:23;9.32;;;4.80;;
68072;SDS011;54862;51.502;7.446;2023-07-13T19:02:55;8.43;;;4.70;;
68072;SDS011;54862;51.502;7.446;2023-07-13T19:05:22;9.60;;;4.72;;
68072;SDS011;54862;51.502;7.446;2023-07-13T19:07:49;12.27;;;5.00;;
68072;SDS011;54862;51.502;7.446;2023-07-13T19:10:16;11.10;;;5.22;;
68072;SDS011;54862;51.502;7.446;2023-07-13T19:12:43;12.13;;;5.25;;
68072;SDS011;54862;51.502;7.446;2023-07-13T19:15:19;8.82;;;5.28;;
68072;SDS011;54862;51.502;7.446;2023-07-13T19:17:47;10.82;;;4.97;;
68072;SDS011;54862;51.502;7.446;2023-07-13T19:20:13;10.27;;;5.10;;
68072;SDS011;54862;51.502;7.446;2023-07-13T19:22:41;9.32;;;5.22;;
68072;SDS011;54862;51.502;7.446;2023-07-13T19:25:12;11.55;;;5.28;;
68072;SDS011;54862;51.502;7.446;2023-07-13T19:27:38;12.68;;;5.30;;
68072;SDS011;54862;51.502;7.446;2023-07-13T19:30:04;11.68;;;5.18;;
68072;SDS011;54862;51.502;7.446;2023-07-13T19:32:30;10.30;;;5.25;;
68072;SDS011;54862;51.502;7.446;2023-07-13T19:34:56;10.73;;;5.38;;
68072;SDS011;54862;51.502;7.446;2023-07-13T19:37:22;9.80;;;5.22;;
68072;SDS011;54862;51.502;7.446;2023-07-13T19:39:49;11.68;;;5.70;;
68072;SDS011;54862;51.502;7.446;2023-07-13T19:42:17;10.23;;;5.00;;
68072;SDS011;54862;51.502;7.446;2023-07-13T19:44:44;12.73;;;5.55;;
68072;SDS011;54862;51.502;7.446;2023-07-13T19:47:14;9.32;;;5.25;;
68072;SDS011;54862;51.502;7.446;2023-07-13T19:49:41;11.88;;;5.65;;
68072;SDS011;54862;51.502;7.446;2023-07-13T19:52:15;10.32;;;5.47;;
68072;SDS011;54862;51.502;7.446;2023-07-13T19:54:41;13.20;;;5.82;;
68072;SDS011;54862;51.502;7.446;2023-07-13T19:57:17;10.35;;;5.15;;
68072;SDS011;54862;51.502;7.446;2023-07-13T19:59:43;12.18;;;5.57;;
68072;SDS011;54862;51.502;7.446;2023-07-13T20:02:22;10.00;;;5.22;;
68072;SDS011;54862;51.502;7.446;2023-07-13T20:04:53;13.65;;;6.68;;
68072;SDS011;54862;51.502;7.446;2023-07-13T20:07:20;10.95;;;5.53;;
68072;SDS011;54862;51.502;7.446;2023-07-13T20:09:47;12.82;;;5.50;;
68072;SDS011;54862;51.502;7.446;2023-07-13T20:12:15;12.18;;;5.30;;
68072;SDS011;54862;51.502;7.446;2023-07-13T20:14:42;8.73;;;5.25;;
68072;SDS011;54862;51.502;7.446;2023-07-13T20:19:40;10.30;;;5.63;;
68072;SDS011;54862;51.502;7.446;2023-07-13T20:22:08;15.05;;;5.97;;
68072;SDS011;54862;51.502;7.446;2023-07-13T20:24:35;9.82;;;5.50;;
68072;SDS011;54862;51.502;7.446;2023-07-13T20:27:01;10.35;;;4.85;;
68072;SDS011;54862;51.502;7.446;2023-07-13T20:29:29;9.40;;;4.68;;
68072;SDS011;54862;51.502;7.446;2023-07-13T20:31:55;12.30;;;5.30;;
68072;SDS011;54862;51.502;7.446;2023-07-13T20:34:26;11.07;;;5.28;;
68072;SDS011;54862;51.502;7.446;2023-07-13T20:36:54;10.93;;;5.03;;
68072;SDS011;54862;51.502;7.446;2023-07-13T20:39:21;13.38;;;5.57;;
68072;SDS011;54862;51.502;7.446;2023-07-13T20:41:49;11.35;;;5.32;;
68072;SDS011;54862;51.502;7.446;2023-07-13T20:44:18;10.20;;;5.18;;
68072;SDS011;54862;51.502;7.446;2023-07-13T20:46:44;10.00;;;5.18;;
68072;SDS011;54862;51.502;7.446;2023-07-13T20:49:10;13.48;;;5.45;;
68072;SDS011;54862;51.502;7.446;2023-07-13T20:51:37;11.68;;;4.95;;
68072;SDS011;54862;51.502;7.446;2023-07-13T20:54:03;9.68;;;4.93;;
68072;SDS011;54862;51.502;7.446;2023-07-13T20:56:32;11.25;;;4.57;;
68072;SDS011;54862;51.502;7.446;2023-07-13T20:59:03;12.80;;;5.22;;
68072;SDS011;54862;51.502;7.446;2023-07-13T21:01:30;11.23;;;5.10;;
68072;SDS011;54862;51.502;7.446;2023-07-13T21:04:05;11.77;;;4.85;;
68072;SDS011;54862;51.502;7.446;2023-07-13T21:06:31;9.38;;;4.70;;
68072;SDS011;54862;51.502;7.446;2023-07-13T21:08:59;8.10;;;4.35;;
68072;SDS011;54862;51.502;7.446;2023-07-13T21:11:27;9.60;;;5.00;;
68072;SDS011;54862;51.502;7.446;2023-07-13T21:13:54;12.20;;;4.70;;
68072;SDS011;54862;51.502;7.446;2023-07-13T21:16:21;9.43;;;4.78;;
68072;SDS011;54862;51.502;7.446;2023-07-13T21:18:48;9.52;;;4.60;;
68072;SDS011;54862;51.502;7.446;2023-07-13T21:21:15;9.80;;;4.72;;
68072;SDS011;54862;51.502;7.446;2023-07-13T21:23:42;10.40;;;4.43;;
68072;SDS011;54862;51.502;7.446;2023-07-13T21:26:11;9.57;;;4.20;;
68072;SDS011;54862;51.502;7.446;2023-07-13T21:28:38;8.13;;;4.28;;
68072;SDS011;54862;51.502;7.446;2023-07-13T21:31:05;9.18;;;4.40;;
68072;SDS011;54862;51.502;7.446;2023-07-13T21:33:32;8.75;;;4.45;;
68072;SDS011;54862;51.502;7.446;2023-07-13T21:35:58;9.50;;;4.22;;
68072;SDS011;54862;51.502;7.446;2023-07-13T21:38:32;10.02;;;4.45;;
68072;SDS011;54862;51.502;7.446;2023-07-13T21:41:01;10.60;;;4.85;;
68072;SDS011;54862;51.502;7.446;2023-07-13T21:43:28;11.48;;;4.60;;
68072;SDS011;54862;51.502;7.446;2023-07-13T21:45:54;8.52;;;4.70;;
68072;SDS011;54862;51.502;7.446;2023-07-13T21:48:20;10.23;;;4.60;;
68072;SDS011;54862;51.502;7.446;2023-07-13T21:50:53;11.63;;;4.57;;
68072;SDS011;54862;51.502;7.446;2023-07-13T21:55:46;8.48;;;4.35;;
68072;SDS011;54862;51.502;7.446;2023-07-13T21:58:32;8.65;;;4.70;;
68072;SDS011;54862;51.502;7.446;2023-07-13T22:00:58;9.73;;;4.57;;
68072;SDS011;54862;51.502;7.446;2023-07-13T22:03:33;9.93;;;4.80;;
68072;SDS011;54862;51.502;7.446;2023-07-13T22:06:02;9.70;;;4.20;;
68072;SDS011;54862;51.502;7.446;2023-07-13T22:08:30;8.40;;;4.22;;
68072;SDS011;54862;51.502;7.446;2023-07-13T22:10:57;9.23;;;4.60;;
68072;SDS011;54862;51.502;7.446;2023-07-13T22:13:27;9.82;;;4.50;;
68072;SDS011;54862;51.502;7.446;2023-07-13T22:15:53;9.77;;;4.18;;
68072;SDS011;54862;51.502;7.446;2023-07-13T22:18:22;7.63;;;4.10;;
68072;SDS011;54862;51.502;7.446;2023-07-13T22:20:48;8.77;;;4.45;;
68072;SDS011;54862;51.502;7.446;2023-07-13T22:23:16;8.63;;;4.55;;
68072;SDS011;54862;51.502;7.446;2023-07-13T22:25:43;8.48;;;4.40;;
68072;SDS011;54862;51.502;7.446;2023-07-13T22:28:11;8.43;;;4.90;;
68072;SDS011;54862;51.502;7.446;2023-07-13T22:30:38;8.25;;;4.20;;
68072;SDS011;54862;51.502;7.446;2023-07-13T22:33:09;7.70;;;4.85;;
68072;SDS011;54862;51.502;7.446;2023-07-13T22:35:36;7.75;;;4.15;;
68072;SDS011;54862;51.502;7.446;2023-07-13T22:38:02;9.35;;;4.28;;
68072;SDS011;54862;51.502;7.446;2023-07-13T22:40:30;9.13;;;4.70;;
68072;SDS011;54862;51.502;7.446;2023-07-13T22:42:56;8.80;;;4.90;;
68072;SDS011;54862;51.502;7.446;2023-07-13T22:45:22;9.65;;;5.15;;
68072;SDS011;54862;51.502;7.446;2023-07-13T22:47:48;10.15;;;4.82;;
68072;SDS011;54862;51.502;7.446;2023-07-13T22:50:17;10.55;;;5.45;;
68072;SDS011;54862;51.502;7.446;2023-07-13T22:52:43;9.82;;;4.95;;
68072;SDS011;54862;51.502;7.446;2023-07-13T22:55:14;10.77;;;5.68;;
68072;SDS011;54862;51.502;7.446;2023-07-13T22:57:43;9.80;;;5.00;;
68072;SDS011;54862;51.502;7.446;2023-07-13T23:02:39;11.80;;;5.28;;
68072;SDS011;54862;51.502;7.446;2023-07-13T23:05:08;10.75;;;5.50;;
68072;SDS011;54862;51.502;7.446;2023-07-13T23:07:38;11.07;;;5.55;;
68072;SDS011;54862;51.502;7.446;2023-07-13T23:10:11;10.73;;;6.03;;
68072;SDS011;54862;51.502;7.446;2023-07-13T23:12:37;12.25;;;5.45;;
68072;SDS011;54862;51.502;7.446;2023-07-13T23:15:04;11.73;;;5.40;;
68072;SDS011;54862;51.502;7.446;2023-07-13T23:17:30;9.93;;;5.72;;
68072;SDS011;54862;51.502;7.446;2023-07-13T23:19:59;8.60;;;5.25;;
68072;SDS011;54862;51.502;7.446;2023-07-13T23:22:26;10.90;;;5.47;;
68072;SDS011;54862;51.502;7.446;2023-07-13T23:24:54;13.18;;;5.75;;
68072;SDS011;54862;51.502;7.446;2023-07-13T23:27:20;9.73;;;5.38;;
68072;SDS011;54862;51.502;7.446;2023-07-13T23:29:46;11.25;;;6.03;;
68072;SDS011;54862;51.502;7.446;2023-07-13T23:32:15;11.55;;;6.10;;
68072;SDS011;54862;51.502;7.446;2023-07-13T23:34:41;13.13;;;6.00;;
68072;SDS011;54862;51.502;7.446;2023-07-13T23:37:13;11.88;;;6.22;;
68072;SDS011;54862;51.502;7.446;2023-07-13T23:39:39;10.93;;;6.28;;
68072;SDS011;54862;51.502;7.446;2023-07-13T23:42:08;13.40;;;6.53;;
68072;SDS011;54862;51.502;7.446;2023-07-13T23:44:34;12.32;;;6.93;;
68072;SDS011;54862;51.502;7.446;2023-07-13T23:47:00;11.00;;;6.35;;
68072;SDS011;54862;51.502;7.446;2023-07-13T23:49:26;10.75;;;6.70;;
68072;SDS011;54862;51.502;7.446;2023-07-13T23:51:59;10.52;;;5.95;;
68072;SDS011;54862;51.502;7.446;2023-07-13T23:54:27;11.82;;;6.45;;
68072;SDS011;54862;51.502;7.446;2023-07-13T23:56:55;11.90;;;6.05;;
68072;SDS011;54862;51.502;7.446;2023-07-13T23:59:23;12.10;;;6.35;;
